createdAt,value
2022-10-18T16:53:37.722Z,17.55
2022-10-18T16:54:37.219Z,17.50
2022-10-18T16:55:37.485Z,17.44
2022-10-18T16:56:36.994Z,17.43
2022-10-18T16:57:36.981Z,17.33
2022-10-18T16:58:36.990Z,17.26
2022-10-18T16:59:36.970Z,17.26
2022-10-18T17:00:36.960Z,17.18
2022-10-18T17:01:37.055Z,17.15
2022-10-18T17:02:36.943Z,17.13
2022-10-18T17:03:36.958Z,17.08
2022-10-18T17:04:36.920Z,17.04
2022-10-18T17:05:36.902Z,16.98
2022-10-18T17:06:36.899Z,16.95
2022-10-18T17:07:36.935Z,16.92
2022-10-18T17:08:36.885Z,16.89
2022-10-18T17:09:36.882Z,16.86
2022-10-18T17:10:36.868Z,16.85
2022-10-18T17:11:36.845Z,16.81
2022-10-18T17:12:36.859Z,16.78
2022-10-18T17:13:36.873Z,16.75
2022-10-18T17:14:36.808Z,16.75
2022-10-18T17:15:37.027Z,16.74
2022-10-18T17:16:36.794Z,16.71
2022-10-18T17:17:36.800Z,16.70
2022-10-18T17:18:36.769Z,16.70
2022-10-18T17:19:36.766Z,16.70
2022-10-18T17:20:36.735Z,16.68
2022-10-18T17:21:36.749Z,16.67
2022-10-18T17:22:36.762Z,16.67
2022-10-18T17:23:36.713Z,16.63
2022-10-18T17:24:36.697Z,16.60
2022-10-18T17:25:42.847Z,16.60
2022-10-18T17:26:36.699Z,16.56
2022-10-18T17:27:36.670Z,16.56
2022-10-18T17:28:36.725Z,16.55
2022-10-18T17:29:36.662Z,16.53
2022-10-18T17:30:36.632Z,16.52
2022-10-18T17:31:36.643Z,16.49
2022-10-18T17:32:36.629Z,16.49
2022-10-18T17:33:36.622Z,16.44
2022-10-18T17:34:36.631Z,16.44
2022-10-18T17:35:36.593Z,16.42
2022-10-18T17:36:36.611Z,16.42
2022-10-18T17:37:36.687Z,16.37
2022-10-18T17:38:36.602Z,16.34
2022-10-18T17:39:36.570Z,16.31
2022-10-18T17:40:36.555Z,16.30
2022-10-18T17:41:36.773Z,16.26
2022-10-18T17:42:36.530Z,16.25
2022-10-18T17:43:36.565Z,16.23
2022-10-18T17:44:36.516Z,16.22
2022-10-18T17:45:36.485Z,16.22
2022-10-18T17:46:36.489Z,16.18
2022-10-18T17:47:36.546Z,16.14
2022-10-18T17:48:36.447Z,16.11
2022-10-18T17:49:36.464Z,16.12
2022-10-18T17:50:36.425Z,16.11
2022-10-18T17:51:36.429Z,16.07
2022-10-18T17:52:36.477Z,16.07
2022-10-18T17:53:36.406Z,16.06
2022-10-18T17:54:36.389Z,16.04
2022-10-18T17:55:36.396Z,16.03
2022-10-18T17:56:36.363Z,16.01
2022-10-18T17:57:36.393Z,16.00
2022-10-18T17:58:36.348Z,15.99
2022-10-18T17:59:36.335Z,15.97
2022-10-18T18:00:36.325Z,15.99
2022-10-18T18:01:36.398Z,16.00
2022-10-18T18:02:39.554Z,15.99
